createdAt,value
2019-06-10T00:00:42.318Z,19.67
2019-06-10T00:01:46.476Z,19.63
2019-06-10T00:02:50.768Z,19.56
2019-06-10T00:03:55.489Z,19.56
2019-06-10T00:05:00.294Z,19.58
2019-06-10T00:06:05.693Z,19.62
2019-06-10T00:07:11.894Z,19.69
2019-06-10T00:08:16.083Z,19.71
2019-06-10T00:09:21.125Z,19.72
2019-06-10T00:10:25.478Z,19.73
2019-06-10T00:11:31.382Z,19.63
2019-06-10T00:12:34.674Z,19.62
2019-06-10T00:13:38.311Z,19.58
2019-06-10T00:14:42.479Z,19.60
2019-06-10T00:15:46.016Z,19.66
2019-06-10T00:16:50.954Z,19.65
2019-06-10T00:18:16.269Z,19.65
2019-06-10T00:19:02.855Z,19.66
2019-06-10T00:20:11.175Z,19.70
2019-06-10T00:21:15.342Z,19.71
2019-06-10T00:22:21.414Z,19.66
2019-06-10T00:23:24.677Z,19.66
2019-06-10T00:24:28.224Z,19.64
2019-06-10T00:25:32.422Z,19.66
2019-06-10T00:26:35.883Z,19.69
2019-06-10T00:27:42.111Z,19.58
2019-06-10T00:28:45.142Z,19.60
2019-06-10T00:29:51.293Z,19.62
2019-06-10T00:30:54.573Z,19.63
2019-06-10T00:31:58.628Z,19.61
2019-06-10T00:33:06.072Z,19.59
2019-06-10T00:34:12.085Z,19.60
2019-06-10T00:35:15.489Z,19.58
2019-06-10T00:36:21.548Z,19.51
2019-06-10T00:37:24.869Z,19.48
2019-06-10T00:38:28.926Z,19.49
2019-06-10T00:39:32.403Z,19.53
2019-06-10T00:40:36.848Z,19.50
2019-06-10T00:41:42.642Z,19.52
2019-06-10T00:42:46.352Z,19.49
2019-06-10T00:43:51.682Z,19.53
2019-06-10T00:44:56.151Z,19.48
2019-06-10T00:46:02.804Z,19.43
2019-06-10T00:47:08.224Z,19.12
2019-06-10T00:48:24.064Z,19.44
2019-06-10T00:49:17.659Z,19.44
2019-06-10T00:50:24.585Z,19.34
2019-06-10T00:51:28.800Z,19.24
2019-06-10T00:52:34.776Z,19.20
2019-06-10T00:53:38.991Z,19.19
2019-06-10T00:54:42.811Z,19.20
2019-06-10T00:55:47.104Z,19.21
2019-06-10T00:56:51.739Z,19.19
2019-06-10T00:57:56.174Z,19.13
2019-06-10T00:59:01.017Z,19.02
2019-06-10T01:00:14.599Z,19.08
2019-06-10T01:01:14.610Z,19.12
2019-06-10T01:02:21.210Z,19.02
2019-06-10T01:03:24.664Z,19.01
2019-06-10T01:04:28.782Z,19.12
2019-06-10T01:05:32.249Z,19.08
2019-06-10T01:06:36.420Z,18.93
2019-06-10T01:07:41.414Z,18.80
2019-06-10T01:08:45.631Z,18.79
2019-06-10T01:09:51.589Z,18.86
2019-06-10T01:10:55.161Z,18.98
2019-06-10T01:12:01.050Z,19.03
2019-06-10T01:13:05.082Z,19.06
2019-06-10T01:14:11.817Z,19.14
2019-06-10T01:15:16.103Z,19.20
2019-06-10T01:16:21.664Z,19.22
2019-06-10T01:17:25.443Z,19.12
2019-06-10T01:18:35.667Z,19.01
2019-06-10T01:19:34.843Z,19.01
2019-06-10T01:20:41.022Z,19.06
2019-06-10T01:21:44.156Z,19.13
2019-06-10T01:22:47.744Z,19.17
2019-06-10T01:23:51.775Z,19.19
2019-06-10T01:24:55.364Z,19.21
2019-06-10T01:26:01.629Z,19.13
2019-06-10T01:27:05.474Z,19.11
2019-06-10T01:28:12.561Z,19.05
2019-06-10T01:29:15.610Z,19.08
2019-06-10T01:30:24.574Z,19.03
2019-06-10T01:31:25.039Z,19.02
2019-06-10T01:32:31.228Z,19.04
2019-06-10T01:33:34.253Z,18.96
2019-06-10T01:34:38.331Z,18.89
2019-06-10T01:35:41.908Z,18.91
2019-06-10T01:36:46.098Z,18.90
2019-06-10T01:37:51.857Z,18.89
2019-06-10T01:38:55.691Z,18.90
2019-06-10T01:40:00.750Z,18.72
2019-06-10T01:41:06.063Z,18.62
2019-06-10T01:42:11.360Z,18.55
2019-06-10T01:43:17.360Z,18.57
2019-06-10T01:44:22.072Z,18.72
2019-06-10T01:45:26.381Z,18.84
2019-06-10T01:46:31.649Z,18.91
2019-06-10T01:47:35.831Z,18.89
2019-06-10T01:48:47.220Z,18.94
2019-06-10T01:49:46.432Z,18.96
2019-06-10T01:50:51.310Z,18.88
2019-06-10T01:51:55.568Z,18.87
2019-06-10T01:53:00.548Z,18.86
2019-06-10T01:54:04.790Z,18.93
2019-06-10T01:55:12.140Z,18.95
2019-06-10T01:56:15.845Z,19.00
2019-06-10T01:57:21.875Z,19.00
2019-06-10T01:58:25.493Z,19.03
2019-06-10T01:59:31.107Z,19.05
2019-06-10T02:00:53.837Z,19.09
2019-06-10T02:02:04.481Z,19.09
2019-06-10T02:03:11.600Z,19.08
2019-06-10T02:04:16.096Z,19.01
2019-06-10T02:05:22.680Z,18.94
2019-06-10T02:06:25.875Z,18.84
2019-06-10T02:07:31.993Z,18.46
2019-06-10T02:08:35.547Z,18.69
2019-06-10T02:09:41.071Z,18.65
2019-06-10T02:10:44.634Z,18.63
2019-06-10T02:11:51.271Z,18.60
2019-06-10T02:12:54.012Z,18.61
2019-06-10T02:13:58.050Z,18.64
2019-06-10T02:15:01.524Z,18.64
2019-06-10T02:16:06.102Z,18.68
2019-06-10T02:17:12.062Z,18.69
2019-06-10T02:18:16.457Z,18.72
2019-06-10T02:19:22.789Z,18.80
2019-06-10T02:20:25.841Z,18.84
2019-06-10T02:21:31.137Z,18.84
2019-06-10T02:22:35.348Z,18.88
2019-06-10T02:23:41.158Z,18.92
2019-06-10T02:24:44.639Z,18.87
2019-06-10T02:25:48.365Z,18.92
2019-06-10T02:26:52.528Z,18.87
2019-06-10T02:27:55.992Z,18.84
2019-06-10T02:29:00.694Z,18.85
2019-06-10T02:30:19.019Z,18.73
2019-06-10T02:31:18.822Z,18.52
2019-06-10T02:32:30.739Z,18.51
2019-06-10T02:33:30.326Z,18.50
2019-06-10T02:34:36.550Z,18.50
2019-06-10T02:35:43.986Z,18.50
2019-06-10T02:36:44.467Z,18.23
2019-06-10T02:37:48.134Z,18.01
2019-06-10T02:38:53.950Z,17.85
2019-06-10T02:39:57.400Z,17.63
2019-06-10T02:41:04.396Z,17.55
2019-06-10T02:42:07.960Z,17.59
2019-06-10T02:43:18.737Z,17.68
2019-06-10T02:44:29.922Z,17.73
2019-06-10T02:45:33.714Z,17.60
2019-06-10T02:46:36.020Z,17.56
2019-06-10T02:47:38.463Z,17.57
2019-06-10T02:48:43.649Z,17.54
2019-06-10T02:49:57.696Z,17.54
2019-06-10T02:50:56.064Z,17.58
2019-06-10T02:52:03.388Z,17.69
2019-06-10T02:53:07.154Z,17.77
2019-06-10T02:54:15.547Z,17.84
2019-06-10T02:55:19.652Z,17.93
2019-06-10T02:56:29.979Z,18.07
2019-06-10T02:57:35.346Z,18.16
2019-06-10T02:58:39.303Z,18.19
2019-06-10T02:59:43.409Z,18.24
2019-06-10T03:00:48.862Z,18.22
2019-06-10T03:01:53.659Z,18.25
2019-06-10T03:02:56.241Z,18.29
2019-06-10T03:04:04.150Z,18.26
2019-06-10T03:05:06.491Z,18.15
2019-06-10T03:06:13.631Z,18.07
2019-06-10T03:07:15.920Z,18.06
2019-06-10T03:08:22.177Z,18.09
2019-06-10T03:09:29.131Z,18.08
2019-06-10T03:10:36.679Z,18.00
2019-06-10T03:11:37.577Z,18.01
2019-06-10T03:12:42.393Z,17.89
2019-06-10T03:13:46.205Z,17.91
2019-06-10T03:14:52.496Z,17.77
2019-06-10T03:15:57.049Z,17.54
2019-06-10T03:17:04.600Z,17.48
2019-06-10T03:18:09.434Z,17.39
2019-06-10T03:19:13.557Z,17.36
2019-06-10T03:20:17.912Z,17.39
2019-06-10T03:21:24.204Z,17.42
2019-06-10T03:22:28.476Z,17.47
2019-06-10T03:23:32.689Z,17.43
2019-06-10T03:24:36.276Z,17.35
2019-06-10T03:25:42.267Z,17.35
2019-06-10T03:26:45.534Z,17.39
2019-06-10T03:27:49.647Z,17.50
2019-06-10T03:28:53.167Z,17.64
2019-06-10T03:29:57.213Z,17.63
2019-06-10T03:31:05.103Z,17.63
2019-06-10T03:32:06.681Z,17.48
2019-06-10T03:33:13.525Z,17.41
2019-06-10T03:34:18.116Z,17.52
2019-06-10T03:35:23.868Z,17.48
2019-06-10T03:36:27.407Z,17.33
2019-06-10T03:37:32.883Z,17.24
2019-06-10T03:38:37.235Z,17.26
2019-06-10T03:39:42.680Z,17.33
2019-06-10T03:40:46.675Z,17.42
2019-06-10T03:41:52.686Z,17.44
2019-06-10T03:42:56.114Z,17.45
2019-06-10T03:43:59.704Z,17.51
2019-06-10T03:45:04.104Z,17.60
2019-06-10T03:46:08.448Z,17.68
2019-06-10T03:47:12.555Z,17.76
2019-06-10T03:48:17.073Z,17.71
2019-06-10T03:49:23.859Z,17.76
2019-06-10T03:50:27.477Z,17.68
2019-06-10T03:51:33.304Z,17.62
2019-06-10T03:52:37.029Z,17.66
2019-06-10T03:53:42.617Z,17.70
2019-06-10T03:54:46.373Z,17.69
2019-06-10T03:55:52.568Z,17.71
2019-06-10T03:56:55.757Z,17.73
2019-06-10T03:58:02.070Z,17.80
2019-06-10T03:59:06.593Z,17.78
2019-06-10T04:00:13.911Z,17.80
2019-06-10T04:01:17.411Z,17.91
2019-06-10T04:02:23.488Z,17.79
2019-06-10T04:03:28.084Z,17.71
2019-06-10T04:04:32.915Z,17.68
2019-06-10T04:05:36.500Z,17.66
2019-06-10T04:06:43.899Z,17.68
2019-06-10T04:07:45.779Z,17.76
2019-06-10T04:08:52.245Z,17.76
2019-06-10T04:09:55.220Z,17.70
2019-06-10T04:10:59.419Z,17.74
2019-06-10T04:12:02.859Z,17.75
2019-06-10T04:13:06.965Z,17.80
2019-06-10T04:14:12.792Z,17.85
2019-06-10T04:15:17.657Z,17.91
2019-06-10T04:16:22.701Z,17.71
2019-06-10T04:17:28.790Z,17.66
2019-06-10T04:18:32.917Z,17.75
2019-06-10T04:19:37.430Z,17.83
2019-06-10T04:20:42.884Z,17.94
2019-06-10T04:21:47.106Z,17.67
2019-06-10T04:22:52.299Z,17.49
2019-06-10T04:23:56.544Z,17.51
2019-06-10T04:25:02.810Z,17.49
2019-06-10T04:26:06.065Z,17.52
2019-06-10T04:27:12.125Z,17.45
2019-06-10T04:28:15.472Z,17.48
2019-06-10T04:29:20.019Z,17.52
2019-06-10T04:30:27.551Z,17.46
2019-06-10T04:31:32.858Z,17.42
2019-06-10T04:32:36.234Z,17.36
2019-06-10T04:33:41.957Z,17.37
2019-06-10T04:34:45.568Z,17.36
2019-06-10T04:35:49.183Z,17.42
2019-06-10T04:36:53.434Z,17.27
2019-06-10T04:37:56.980Z,17.33
2019-06-10T04:39:03.177Z,17.37
2019-06-10T04:40:07.879Z,17.17
2019-06-10T04:41:12.618Z,17.19
2019-06-10T04:42:16.420Z,17.33
2019-06-10T04:43:22.978Z,17.43
2019-06-10T04:44:26.635Z,17.42
2019-06-10T04:45:32.471Z,17.53
2019-06-10T04:46:37.070Z,17.36
2019-06-10T04:47:43.193Z,17.37
2019-06-10T04:48:46.413Z,17.41
2019-06-10T04:49:52.256Z,17.40
2019-06-10T04:50:55.862Z,17.48
2019-06-10T04:52:00.165Z,17.52
2019-06-10T04:53:03.761Z,17.54
2019-06-10T04:54:07.898Z,17.60
2019-06-10T04:55:12.616Z,17.56
2019-06-10T04:56:16.896Z,17.52
2019-06-10T04:57:21.431Z,17.47
2019-06-10T04:58:27.575Z,17.50
2019-06-10T04:59:33.703Z,17.44
2019-06-10T05:00:37.434Z,17.46
2019-06-10T05:01:42.528Z,17.28
2019-06-10T05:02:46.990Z,17.18
2019-06-10T05:03:52.711Z,17.09
2019-06-10T05:04:56.620Z,17.07
2019-06-10T05:06:00.136Z,17.11
2019-06-10T05:07:04.346Z,17.17
2019-06-10T05:08:07.927Z,17.30
2019-06-10T05:09:12.564Z,17.33
2019-06-10T05:10:19.214Z,17.41
2019-06-10T05:11:24.258Z,17.45
2019-06-10T05:12:29.620Z,17.48
2019-06-10T05:13:33.953Z,17.59
2019-06-10T05:14:37.391Z,17.64
2019-06-10T05:15:43.388Z,17.65
2019-06-10T05:16:48.505Z,17.72
2019-06-10T05:17:52.795Z,17.71
2019-06-10T05:18:56.396Z,17.66
2019-06-10T05:20:02.613Z,17.62
2019-06-10T05:21:05.896Z,17.64
2019-06-10T05:22:12.238Z,17.61
2019-06-10T05:23:15.268Z,17.58
2019-06-10T05:24:19.751Z,17.64
2019-06-10T05:25:25.348Z,17.68
2019-06-10T05:26:30.482Z,17.72
2019-06-10T05:27:34.437Z,17.69
2019-06-10T05:28:39.041Z,17.69
2019-06-10T05:29:42.781Z,17.77
2019-06-10T05:30:46.954Z,17.83
2019-06-10T05:31:52.276Z,17.92
2019-06-10T05:32:56.871Z,17.95
2019-06-10T05:34:02.302Z,17.99
2019-06-10T05:35:06.792Z,17.90
2019-06-10T05:36:12.836Z,17.91
2019-06-10T05:37:16.228Z,17.95
2019-06-10T05:38:23.437Z,17.91
2019-06-10T05:39:27.568Z,17.79
2019-06-10T05:40:34.044Z,17.67
2019-06-10T05:41:36.739Z,17.54
2019-06-10T05:42:42.430Z,17.52
2019-06-10T05:43:46.002Z,17.51
2019-06-10T05:44:49.542Z,17.59
2019-06-10T05:45:53.701Z,17.66
2019-06-10T05:46:57.353Z,17.70
2019-06-10T05:48:02.785Z,17.74
2019-06-10T05:49:09.307Z,17.72
2019-06-10T05:50:13.725Z,17.67
2019-06-10T05:51:17.300Z,17.61
2019-06-10T05:52:23.424Z,17.52
2019-06-10T05:53:27.652Z,17.43
2019-06-10T05:54:34.017Z,17.29
2019-06-10T05:55:37.617Z,17.28
2019-06-10T05:56:43.250Z,17.19
2019-06-10T05:57:46.969Z,17.18
2019-06-10T05:58:52.511Z,17.13
2019-06-10T05:59:56.177Z,17.08
2019-06-10T06:01:02.505Z,17.17
2019-06-10T06:02:05.635Z,17.26
2019-06-10T06:03:11.958Z,17.29
2019-06-10T06:04:14.965Z,17.41
2019-06-10T06:05:19.120Z,17.45
2019-06-10T06:06:23.127Z,17.37
2019-06-10T06:07:27.482Z,17.42
2019-06-10T06:08:33.460Z,17.48
2019-06-10T06:09:37.787Z,17.51
2019-06-10T06:10:42.276Z,17.55
2019-06-10T06:11:46.581Z,17.57
2019-06-10T06:12:52.540Z,17.53
2019-06-10T06:13:55.932Z,17.62
2019-06-10T06:14:59.525Z,17.68
2019-06-10T06:16:05.290Z,17.63
2019-06-10T06:17:08.888Z,17.68
2019-06-10T06:18:14.127Z,17.65
2019-06-10T06:19:17.757Z,17.66
2019-06-10T06:20:23.519Z,17.60
2019-06-10T06:21:33.440Z,17.67
2019-06-10T06:22:35.518Z,17.70
2019-06-10T06:23:38.320Z,17.75
2019-06-10T06:24:42.853Z,17.75
2019-06-10T06:25:47.067Z,17.71
2019-06-10T06:26:53.400Z,17.68
2019-06-10T06:27:56.686Z,17.69
2019-06-10T06:29:02.211Z,17.68
2019-06-10T06:30:14.670Z,17.67
2019-06-10T06:31:15.195Z,17.66
2019-06-10T06:32:18.720Z,17.67
2019-06-10T06:33:22.862Z,17.75
2019-06-10T06:34:26.933Z,17.75
2019-06-10T06:35:33.633Z,17.83
2019-06-10T06:36:37.027Z,17.95
2019-06-10T06:37:42.880Z,18.03
2019-06-10T06:38:46.676Z,17.95
2019-06-10T06:39:52.359Z,17.93
2019-06-10T06:40:55.961Z,17.95
2019-06-10T06:42:02.196Z,17.91
2019-06-10T06:43:06.311Z,17.72
2019-06-10T06:44:12.733Z,17.78
2019-06-10T06:45:17.035Z,17.79
2019-06-10T06:46:23.442Z,17.86
2019-06-10T06:47:26.253Z,17.92
2019-06-10T06:48:33.599Z,17.93
2019-06-10T06:49:37.058Z,17.91
2019-06-10T06:51:00.242Z,17.96
2019-06-10T06:51:54.669Z,17.98
2019-06-10T06:53:18.740Z,18.08
2019-06-10T06:53:58.024Z,18.14
2019-06-10T06:55:02.600Z,17.98
2019-06-10T06:56:06.231Z,17.87
2019-06-10T06:57:10.348Z,17.98
2019-06-10T06:58:13.951Z,18.01
2019-06-10T06:59:18.083Z,17.95
2019-06-10T07:00:43.053Z,18.02
2019-06-10T07:01:34.672Z,18.04
2019-06-10T07:02:37.555Z,18.12
2019-06-10T07:03:45.128Z,18.09
2019-06-10T07:04:47.452Z,18.08
2019-06-10T07:05:52.990Z,18.08
2019-06-10T07:06:57.085Z,18.07
2019-06-10T07:08:02.829Z,18.07
2019-06-10T07:09:08.277Z,18.00
2019-06-10T07:10:12.909Z,18.03
2019-06-10T07:11:17.959Z,18.13
2019-06-10T07:12:25.106Z,18.15
2019-06-10T07:13:28.654Z,18.15
2019-06-10T07:14:36.871Z,18.20
2019-06-10T07:15:48.105Z,18.29
2019-06-10T07:16:52.965Z,18.42
2019-06-10T07:17:56.591Z,18.56
2019-06-10T07:19:02.609Z,18.64
2019-06-10T07:20:07.350Z,18.58
2019-06-10T07:21:13.239Z,18.53
2019-06-10T07:22:16.965Z,18.58
2019-06-10T07:23:22.522Z,18.62
2019-06-10T07:24:26.192Z,18.61
2019-06-10T07:25:34.124Z,18.51
2019-06-10T07:26:40.527Z,18.52
2019-06-10T07:27:45.109Z,18.63
2019-06-10T07:28:47.643Z,18.77
2019-06-10T07:29:53.020Z,18.86
2019-06-10T07:30:56.690Z,18.94
2019-06-10T07:32:03.217Z,19.01
2019-06-10T07:33:05.985Z,19.04
2019-06-10T07:34:10.043Z,19.03
2019-06-10T07:35:13.648Z,19.13
2019-06-10T07:36:17.859Z,19.19
2019-06-10T07:37:23.234Z,19.25
2019-06-10T07:38:27.155Z,19.00
2019-06-10T07:39:30.669Z,19.00
2019-06-10T07:40:36.212Z,19.06
2019-06-10T07:41:42.045Z,19.06
2019-06-10T07:42:45.883Z,19.01
2019-06-10T07:43:49.886Z,19.10
2019-06-10T07:44:54.576Z,19.13
2019-06-10T07:45:58.083Z,19.12
2019-06-10T07:47:02.699Z,19.12
2019-06-10T07:48:06.407Z,19.19
2019-06-10T07:49:13.235Z,19.24
2019-06-10T07:50:15.971Z,19.26
2019-06-10T07:51:22.387Z,19.13
2019-06-10T07:52:25.386Z,19.18
2019-06-10T07:53:29.509Z,19.24
2019-06-10T07:54:34.444Z,19.27
2019-06-10T07:55:39.591Z,19.39
2019-06-10T07:56:50.034Z,19.35
2019-06-10T07:57:49.138Z,19.42
2019-06-10T07:58:53.020Z,19.48
2019-06-10T07:59:57.101Z,19.58
2019-06-10T08:01:02.609Z,19.69
2019-06-10T08:02:06.449Z,19.78
2019-06-10T08:03:09.889Z,19.84
2019-06-10T08:04:14.045Z,19.84
2019-06-10T08:05:18.133Z,19.80
2019-06-10T08:06:23.096Z,19.81
2019-06-10T08:07:26.617Z,19.81
2019-06-10T08:08:32.643Z,19.85
2019-06-10T08:09:37.280Z,19.87
2019-06-10T08:10:44.766Z,19.88
2019-06-10T08:11:48.783Z,19.94
2019-06-10T08:12:53.005Z,19.98
2019-06-10T08:13:56.514Z,19.95
2019-06-10T08:15:02.758Z,19.99
2019-06-10T08:16:05.926Z,20.05
2019-06-10T08:17:10.026Z,20.16
2019-06-10T08:18:13.484Z,20.26
2019-06-10T08:19:29.395Z,20.31
2019-06-10T08:20:43.227Z,20.35
2019-06-10T08:21:48.981Z,20.33
2019-06-10T08:22:57.119Z,20.38
2019-06-10T08:23:57.582Z,20.45
2019-06-10T08:25:04.844Z,20.42
2019-06-10T08:26:07.009Z,20.44
2019-06-10T08:27:12.080Z,20.51
2019-06-10T08:28:15.878Z,20.57
2019-06-10T08:29:19.916Z,20.56
2019-06-10T08:30:27.411Z,20.59
2019-06-10T08:31:29.549Z,20.55
2019-06-10T08:32:33.572Z,20.56
2019-06-10T08:33:39.010Z,20.63
2019-06-10T08:34:45.033Z,20.63
2019-06-10T08:35:57.373Z,20.65
2019-06-10T08:36:54.541Z,20.67
2019-06-10T08:37:58.740Z,20.73
2019-06-10T08:39:03.223Z,20.74
2019-06-10T08:40:08.088Z,20.74
2019-06-10T08:41:12.351Z,20.75
2019-06-10T08:42:16.611Z,20.81
2019-06-10T08:43:22.433Z,20.86
2019-06-10T08:44:25.898Z,20.97
2019-06-10T08:45:29.488Z,21.00
2019-06-10T08:46:33.584Z,21.05
2019-06-10T08:47:39.245Z,21.10
2019-06-10T08:48:46.151Z,21.17
2019-06-10T08:49:49.177Z,21.24
2019-06-10T08:50:54.431Z,21.29
2019-06-10T08:51:57.898Z,21.25
2019-06-10T08:53:13.982Z,21.08
2019-06-10T08:54:07.341Z,21.32
2019-06-10T08:55:12.569Z,21.38
2019-06-10T08:56:16.149Z,21.45
2019-06-10T08:57:20.210Z,21.46
2019-06-10T08:58:23.842Z,21.51
2019-06-10T08:59:28.022Z,21.58
2019-06-10T09:00:33.200Z,21.61
2019-06-10T09:01:40.454Z,21.67
2019-06-10T09:02:46.889Z,21.69
2019-06-10T09:03:50.577Z,21.66
2019-06-10T09:04:54.338Z,21.66
2019-06-10T09:05:58.668Z,21.68
2019-06-10T09:07:04.208Z,21.72
2019-06-10T09:08:07.965Z,21.73
2019-06-10T09:09:12.911Z,21.75
2019-06-10T09:10:19.249Z,21.74
2019-06-10T09:11:23.781Z,21.78
2019-06-10T09:12:33.211Z,21.81
2019-06-10T09:13:33.940Z,21.84
2019-06-10T09:14:38.654Z,21.93
2019-06-10T09:15:45.120Z,22.02
2019-06-10T09:16:49.398Z,22.07
2019-06-10T09:17:56.163Z,22.13
2019-06-10T09:18:59.368Z,22.11
2019-06-10T09:20:04.760Z,22.15
2019-06-10T09:21:08.875Z,22.18
2019-06-10T09:22:12.642Z,22.21
2019-06-10T09:23:22.190Z,22.19
2019-06-10T09:24:22.484Z,22.21
2019-06-10T09:25:26.756Z,22.25
2019-06-10T09:26:33.480Z,22.26
2019-06-10T09:27:36.724Z,22.27
2019-06-10T09:28:41.509Z,22.21
2019-06-10T09:29:49.852Z,22.15
2019-06-10T09:30:58.001Z,22.15
2019-06-10T09:31:57.262Z,22.14
2019-06-10T09:33:04.158Z,22.13
2019-06-10T09:34:06.575Z,22.10
2019-06-10T09:35:12.635Z,22.04
2019-06-10T09:36:16.333Z,22.11
2019-06-10T09:37:20.143Z,22.10
2019-06-10T09:38:24.357Z,22.14
2019-06-10T09:39:27.961Z,22.18
2019-06-10T09:41:01.279Z,22.24
2019-06-10T09:42:05.307Z,22.30
2019-06-10T09:43:05.934Z,22.33
2019-06-10T09:44:09.493Z,22.41
2019-06-10T09:45:13.927Z,22.34
2019-06-10T09:46:19.690Z,22.34
2019-06-10T09:47:23.793Z,22.31
2019-06-10T09:48:27.497Z,22.30
2019-06-10T09:49:33.065Z,22.32
2019-06-10T09:50:48.821Z,22.31
2019-06-10T09:51:51.452Z,22.25
2019-06-10T09:52:57.066Z,22.28
2019-06-10T09:54:05.628Z,22.31
2019-06-10T09:55:06.665Z,22.35
2019-06-10T09:56:12.545Z,22.28
2019-06-10T09:57:16.188Z,22.28
2019-06-10T09:58:22.969Z,22.35
2019-06-10T09:59:25.863Z,22.39
2019-06-10T10:00:48.495Z,22.54
2019-06-10T10:01:56.679Z,22.61
2019-06-10T10:02:56.252Z,22.75
2019-06-10T10:04:00.719Z,22.90
2019-06-10T10:05:07.545Z,23.00
2019-06-10T10:06:15.443Z,23.13
2019-06-10T10:07:17.209Z,23.24
2019-06-10T10:08:23.046Z,23.33
2019-06-10T10:09:26.900Z,23.40
2019-06-10T10:10:38.386Z,23.41
2019-06-10T10:11:45.577Z,23.45
2019-06-10T10:12:49.055Z,23.51
2019-06-10T10:13:53.736Z,23.54
2019-06-10T10:14:57.263Z,23.49
2019-06-10T10:16:02.555Z,23.53
2019-06-10T10:17:06.367Z,23.34
2019-06-10T10:18:13.366Z,23.24
2019-06-10T10:19:17.789Z,23.09
2019-06-10T10:20:22.830Z,23.12
2019-06-10T10:21:26.408Z,23.27
2019-06-10T10:22:30.594Z,23.41
2019-06-10T10:23:50.461Z,23.50
2019-06-10T10:24:42.486Z,23.62
2019-06-10T10:25:47.814Z,23.71
2019-06-10T10:26:57.151Z,23.82
2019-06-10T10:27:57.741Z,23.90
2019-06-10T10:29:02.758Z,23.96
2019-06-10T10:30:08.742Z,23.96
2019-06-10T10:31:13.213Z,23.88
2019-06-10T10:32:16.829Z,23.76
2019-06-10T10:33:24.361Z,23.72
2019-06-10T10:34:26.429Z,23.63
2019-06-10T10:35:32.654Z,23.64
2019-06-10T10:36:35.939Z,23.75
2019-06-10T10:37:40.051Z,23.83
2019-06-10T10:38:44.779Z,23.84
2019-06-10T10:39:49.225Z,23.90
2019-06-10T10:40:58.601Z,23.96
2019-06-10T10:41:58.648Z,24.11
2019-06-10T10:43:22.359Z,24.21
2019-06-10T10:44:08.102Z,24.27
2019-06-10T10:45:13.794Z,24.36
2019-06-10T10:46:18.102Z,24.44
2019-06-10T10:47:25.145Z,24.55
2019-06-10T10:48:27.498Z,24.58
2019-06-10T10:49:32.473Z,24.57
2019-06-10T10:50:36.809Z,24.66
2019-06-10T10:51:40.319Z,24.74
2019-06-10T10:52:46.343Z,24.81
2019-06-10T10:54:15.517Z,24.82
2019-06-10T10:54:55.656Z,24.87
2019-06-10T10:55:59.167Z,24.91
2019-06-10T10:57:03.420Z,24.99
2019-06-10T10:58:07.093Z,25.08
2019-06-10T10:59:13.275Z,25.14
2019-06-10T11:00:19.558Z,25.20
2019-06-10T11:01:23.879Z,25.28
2019-06-10T11:02:27.357Z,25.38
2019-06-10T11:03:33.586Z,25.39
2019-06-10T11:04:42.079Z,25.41
2019-06-10T11:05:49.480Z,25.49
2019-06-10T11:06:54.298Z,25.54
2019-06-10T11:07:57.145Z,25.53
2019-06-10T11:09:00.698Z,25.48
2019-06-10T11:10:06.974Z,25.36
2019-06-10T11:11:13.518Z,25.34
2019-06-10T11:12:18.323Z,25.31
2019-06-10T11:13:24.886Z,25.35
2019-06-10T11:14:29.856Z,25.46
2019-06-10T11:15:34.009Z,25.59
2019-06-10T11:16:38.182Z,25.72
2019-06-10T11:17:42.682Z,25.83
2019-06-10T11:18:47.474Z,25.90
2019-06-10T11:19:53.736Z,25.92
2019-06-10T11:21:01.254Z,25.93
2019-06-10T11:22:03.075Z,25.92
2019-06-10T11:23:07.553Z,25.90
2019-06-10T11:24:14.189Z,25.94
2019-06-10T11:25:17.097Z,25.91
2019-06-10T11:26:22.849Z,25.87
2019-06-10T11:27:26.581Z,25.83
2019-06-10T11:28:32.112Z,25.71
2019-06-10T11:29:36.117Z,25.71
2019-06-10T11:30:42.475Z,25.73
2019-06-10T11:31:46.298Z,25.80
2019-06-10T11:32:53.540Z,25.79
2019-06-10T11:33:58.960Z,25.81
2019-06-10T11:35:02.929Z,25.87
2019-06-10T11:36:07.105Z,25.96
2019-06-10T11:37:12.652Z,25.93
2019-06-10T11:38:16.476Z,25.85
2019-06-10T11:39:22.442Z,25.81
2019-06-10T11:40:26.260Z,25.80
2019-06-10T11:41:32.291Z,25.76
2019-06-10T11:42:35.783Z,25.73
2019-06-10T11:43:39.303Z,25.69
2019-06-10T11:44:43.894Z,25.66
2019-06-10T11:45:52.115Z,25.64
2019-06-10T11:46:54.889Z,25.60
2019-06-10T11:47:59.130Z,25.63
2019-06-10T11:49:12.421Z,25.57
2019-06-10T11:50:16.601Z,25.56
2019-06-10T11:51:23.266Z,25.54
2019-06-10T11:52:26.153Z,25.50
2019-06-10T11:53:30.193Z,25.53
2019-06-10T11:54:47.813Z,25.49
2019-06-10T11:55:39.619Z,25.46
2019-06-10T11:56:43.090Z,25.50
2019-06-10T11:57:47.888Z,25.53
2019-06-10T11:58:54.935Z,25.60
2019-06-10T11:59:58.318Z,25.59
2019-06-10T12:01:03.865Z,25.66
2019-06-10T12:02:08.685Z,25.71
2019-06-10T12:03:13.141Z,25.66
2019-06-10T12:04:17.250Z,25.58
2019-06-10T12:05:23.435Z,25.59
2019-06-10T12:06:26.793Z,25.57
2019-06-10T12:07:33.056Z,25.63
2019-06-10T12:08:36.124Z,25.68
2019-06-10T12:09:39.591Z,25.84
2019-06-10T12:10:43.632Z,25.99
2019-06-10T12:11:47.170Z,26.05
2019-06-10T12:12:55.117Z,26.18
2019-06-10T12:14:01.935Z,26.20
2019-06-10T12:15:02.482Z,26.24
2019-06-10T12:16:51.539Z,26.18
2019-06-10T12:17:25.058Z,26.21
2019-06-10T12:18:18.663Z,26.17
2019-06-10T12:19:23.552Z,26.11
2019-06-10T12:20:28.576Z,26.04
2019-06-10T12:21:33.181Z,26.17
2019-06-10T12:22:37.407Z,26.43
2019-06-10T12:23:43.498Z,26.59
2019-06-10T12:24:46.685Z,26.69
2019-06-10T12:25:54.553Z,26.77
2019-06-10T12:26:58.373Z,26.94
2019-06-10T12:28:07.004Z,26.97
2019-06-10T12:29:06.923Z,26.86
2019-06-10T12:30:13.243Z,26.91
2019-06-10T12:31:17.323Z,26.61
2019-06-10T12:32:22.520Z,26.46
2019-06-10T12:33:26.195Z,26.56
2019-06-10T12:34:33.018Z,26.67
2019-06-10T12:35:35.651Z,26.66
2019-06-10T12:36:39.544Z,26.65
2019-06-10T12:37:43.423Z,26.73
2019-06-10T12:38:47.617Z,27.00
2019-06-10T12:39:54.382Z,27.21
2019-06-10T12:40:58.966Z,26.86
2019-06-10T12:42:06.107Z,26.78
2019-06-10T12:43:08.692Z,27.05
2019-06-10T12:44:13.272Z,26.95
2019-06-10T12:45:17.814Z,27.04
2019-06-10T12:46:23.275Z,27.14
2019-06-10T12:47:27.738Z,27.38
2019-06-10T12:48:34.115Z,27.62
2019-06-10T12:49:37.668Z,27.66
2019-06-10T12:50:42.867Z,27.68
2019-06-10T12:51:47.208Z,27.38
2019-06-10T12:52:52.931Z,27.42
2019-06-10T12:53:57.384Z,27.62
2019-06-10T12:55:02.292Z,27.64
2019-06-10T12:56:10.678Z,27.54
2019-06-10T12:57:12.342Z,27.62
2019-06-10T12:58:16.712Z,27.62
2019-06-10T12:59:21.656Z,27.69
2019-06-10T13:00:26.667Z,27.69
2019-06-10T13:01:32.825Z,27.89
2019-06-10T13:02:36.438Z,28.02
2019-06-10T13:03:40.106Z,28.02
2019-06-10T13:04:45.626Z,28.01
2019-06-10T13:05:49.154Z,28.02
2019-06-10T13:06:53.399Z,27.95
2019-06-10T13:07:59.761Z,27.95
2019-06-10T13:09:06.356Z,27.81
2019-06-10T13:10:12.165Z,27.89
2019-06-10T13:11:16.404Z,28.12
2019-06-10T13:12:19.974Z,28.12
2019-06-10T13:13:24.394Z,27.90
2019-06-10T13:14:27.839Z,27.90
2019-06-10T13:15:32.827Z,28.38
2019-06-10T13:16:36.422Z,28.38
2019-06-10T13:17:40.462Z,28.82
2019-06-10T13:18:45.650Z,28.82
2019-06-10T13:19:49.816Z,28.66
2019-06-10T13:20:53.967Z,28.93
2019-06-10T13:21:59.244Z,29.11
2019-06-10T13:23:17.354Z,29.11
2019-06-10T13:24:08.590Z,29.37
2019-06-10T13:25:13.362Z,29.53
2019-06-10T13:26:17.965Z,29.65
2019-06-10T13:27:22.717Z,29.65
2019-06-10T13:28:26.930Z,29.63
2019-06-10T13:29:33.079Z,29.42
2019-06-10T13:30:36.393Z,29.42
2019-06-10T13:31:39.839Z,29.57
2019-06-10T13:32:43.948Z,29.57
2019-06-10T13:33:47.457Z,29.61
2019-06-10T13:34:52.750Z,29.50
2019-06-10T13:35:56.854Z,29.68
2019-06-10T13:37:03.440Z,29.84
2019-06-10T13:38:07.269Z,30.05
2019-06-10T13:39:13.437Z,30.12
2019-06-10T13:40:18.760Z,30.00
2019-06-10T13:41:23.032Z,29.96
2019-06-10T13:42:26.638Z,30.17
2019-06-10T13:43:33.831Z,30.36
2019-06-10T13:44:36.263Z,30.40
2019-06-10T13:45:42.348Z,30.34
2019-06-10T13:46:45.616Z,30.26
2019-06-10T13:47:50.162Z,30.46
2019-06-10T13:48:53.978Z,30.60
2019-06-10T13:49:58.987Z,30.87
2019-06-10T13:51:07.248Z,31.15
2019-06-10T13:52:12.906Z,31.34
2019-06-10T13:53:13.810Z,31.44
2019-06-10T13:54:17.927Z,31.55
2019-06-10T13:55:22.342Z,31.73
2019-06-10T13:56:43.065Z,31.72